createdAt,value
2018-10-02T00:01:57.717Z,18.17
2018-10-02T00:04:26.377Z,12.63
2018-10-02T00:06:55.032Z,13.03
2018-10-02T00:09:23.691Z,15.27
2018-10-02T00:11:57.398Z,14.63
2018-10-02T00:14:28.075Z,13.90
2018-10-02T00:16:56.879Z,14.33
2018-10-02T00:19:25.825Z,18.67
2018-10-02T00:21:54.477Z,15.70
2018-10-02T00:24:23.125Z,20.33
2018-10-02T00:26:51.826Z,18.30
2018-10-02T00:29:20.493Z,17.70
2018-10-02T00:31:49.192Z,18.30
2018-10-02T00:34:17.852Z,20.77
2018-10-02T00:36:46.481Z,15.33
2018-10-02T00:39:16.562Z,13.10
2018-10-02T00:41:45.216Z,14.27
2018-10-02T00:44:13.930Z,14.57
2018-10-02T00:46:42.633Z,11.93
2018-10-02T00:49:11.319Z,9.93
2018-10-02T00:51:40.067Z,11.80
2018-10-02T00:54:08.768Z,8.03
2018-10-02T00:56:37.498Z,8.97
2018-10-02T00:59:06.192Z,8.23
2018-10-02T01:01:34.837Z,10.27
2018-10-02T01:04:03.472Z,7.17
2018-10-02T01:06:32.241Z,8.67
2018-10-02T01:09:00.933Z,10.37
2018-10-02T01:11:29.583Z,9.57
2018-10-02T01:13:58.246Z,10.27
2018-10-02T01:16:26.869Z,12.00
2018-10-02T01:18:55.506Z,13.30
2018-10-02T01:21:24.178Z,16.80
2018-10-02T01:23:52.873Z,14.27
2018-10-02T01:26:21.529Z,13.03
2018-10-02T01:28:50.156Z,12.30
2018-10-02T01:31:18.782Z,11.93
2018-10-02T01:33:47.444Z,14.80
2018-10-02T01:36:16.113Z,15.30
2018-10-02T01:38:44.810Z,11.10
2018-10-02T01:41:13.462Z,12.67
2018-10-02T01:43:43.148Z,10.47
2018-10-02T01:46:11.858Z,10.13
2018-10-02T01:48:40.568Z,11.47
2018-10-02T01:51:09.254Z,10.07
2018-10-02T01:53:38.179Z,11.97
2018-10-02T01:56:06.805Z,9.80
2018-10-02T01:58:35.455Z,9.00
2018-10-02T02:01:04.097Z,15.40
2018-10-02T02:03:32.759Z,12.37
2018-10-02T02:06:01.428Z,9.03
2018-10-02T02:08:30.095Z,9.03
2018-10-02T02:10:58.788Z,7.93
2018-10-02T02:13:27.473Z,8.03
2018-10-02T02:15:56.133Z,12.07
2018-10-02T02:18:24.767Z,10.60
2018-10-02T02:20:53.389Z,7.17
2018-10-02T02:23:22.033Z,8.70
2018-10-02T02:25:50.680Z,10.47
2018-10-02T02:28:19.327Z,9.50
2018-10-02T02:30:48.078Z,6.50
2018-10-02T02:33:16.737Z,6.87
2018-10-02T02:35:45.406Z,6.33
2018-10-02T02:38:14.065Z,5.90
2018-10-02T02:40:42.783Z,8.93
2018-10-02T02:43:11.485Z,10.60
2018-10-02T02:45:40.081Z,5.63
2018-10-02T02:48:13.966Z,8.50
2018-10-02T02:50:50.606Z,7.50
2018-10-02T02:53:20.783Z,9.13
2018-10-02T02:55:49.544Z,6.50
2018-10-02T02:58:18.226Z,7.90
2018-10-02T03:00:46.892Z,7.23
2018-10-02T03:03:15.626Z,7.70
2018-10-02T03:05:44.332Z,7.20
2018-10-02T03:08:13.006Z,8.23
2018-10-02T03:10:41.679Z,11.43
2018-10-02T03:13:10.432Z,8.73
2018-10-02T03:15:39.095Z,10.70
2018-10-02T03:18:07.778Z,6.70
2018-10-02T03:20:36.438Z,6.37
2018-10-02T03:23:05.069Z,7.27
2018-10-02T03:25:33.726Z,11.50
2018-10-02T03:28:02.389Z,7.77
2018-10-02T03:30:31.046Z,7.00
2018-10-02T03:33:00.031Z,7.80
2018-10-02T03:35:28.653Z,5.70
2018-10-02T03:37:57.397Z,9.50
2018-10-02T03:40:25.988Z,7.83
2018-10-02T03:42:54.673Z,6.27
2018-10-02T03:45:23.334Z,6.13
2018-10-02T03:47:52.066Z,5.67
2018-10-02T03:50:20.850Z,8.93
2018-10-02T03:52:49.511Z,8.07
2018-10-02T03:55:18.151Z,7.10
2018-10-02T03:57:46.785Z,7.10
2018-10-02T04:00:15.426Z,6.80
2018-10-02T04:02:44.029Z,9.63
2018-10-02T04:05:12.734Z,7.70
2018-10-02T04:07:41.466Z,5.97
2018-10-02T04:10:10.104Z,5.80
2018-10-02T04:12:38.727Z,5.40
2018-10-02T04:15:07.490Z,10.03
2018-10-02T04:17:36.190Z,8.07
2018-10-02T04:20:05.186Z,8.60
2018-10-02T04:22:33.805Z,8.33
2018-10-02T04:25:02.790Z,6.20
2018-10-02T04:27:31.518Z,5.20
2018-10-02T04:30:00.178Z,6.90
2018-10-02T04:32:28.806Z,6.63
2018-10-02T04:34:57.496Z,9.03
2018-10-02T04:37:26.137Z,4.90
2018-10-02T04:39:54.866Z,11.60
2018-10-02T04:42:23.570Z,6.33
2018-10-02T04:44:52.279Z,7.93
2018-10-02T04:47:20.937Z,5.37
2018-10-02T04:49:50.618Z,6.60
2018-10-02T04:52:19.294Z,7.93
2018-10-02T04:54:47.938Z,5.50
2018-10-02T04:57:16.652Z,5.40
2018-10-02T04:59:45.404Z,7.77
2018-10-02T05:02:14.114Z,6.33
2018-10-02T05:04:42.788Z,6.03
2018-10-02T05:07:11.505Z,5.57
2018-10-02T05:09:40.302Z,6.30
2018-10-02T05:12:08.974Z,6.90
2018-10-02T05:14:37.631Z,4.43
2018-10-02T05:17:06.323Z,6.23
2018-10-02T05:19:34.978Z,5.27
2018-10-02T05:22:03.664Z,5.73
2018-10-02T05:24:32.335Z,5.20
2018-10-02T05:27:01.145Z,9.07
2018-10-02T05:29:29.809Z,7.43
2018-10-02T05:31:58.566Z,6.17
2018-10-02T05:34:27.284Z,5.23
2018-10-02T05:36:55.995Z,5.70
2018-10-02T05:39:25.054Z,5.33
2018-10-02T05:41:53.800Z,8.00
2018-10-02T05:44:22.757Z,5.83
2018-10-02T05:46:51.433Z,7.07
2018-10-02T05:49:20.119Z,8.40
2018-10-02T05:51:48.859Z,5.27
2018-10-02T05:54:17.537Z,6.40
2018-10-02T05:56:46.220Z,6.50
2018-10-02T05:59:14.921Z,6.53
2018-10-02T06:01:43.691Z,10.23
2018-10-02T06:04:12.390Z,6.00
2018-10-02T06:06:41.416Z,9.73
2018-10-02T06:09:11.721Z,5.83
2018-10-02T06:11:40.556Z,4.77
2018-10-02T06:14:10.938Z,4.97
2018-10-02T06:16:39.762Z,4.50
2018-10-02T06:19:08.430Z,4.60
2018-10-02T06:21:37.120Z,8.33
2018-10-02T06:24:05.862Z,9.10
2018-10-02T06:26:34.527Z,9.43
2018-10-02T06:29:03.210Z,6.03
2018-10-02T06:31:31.947Z,4.87
2018-10-02T06:34:00.617Z,6.33
2018-10-02T06:36:29.347Z,6.07
2018-10-02T06:38:58.068Z,5.10
2018-10-02T06:41:26.740Z,8.47
2018-10-02T06:43:55.397Z,8.87
2018-10-02T06:46:24.158Z,4.77
2018-10-02T06:48:52.836Z,7.13
2018-10-02T06:51:21.639Z,4.93
2018-10-02T06:53:50.164Z,7.10
2018-10-02T06:56:18.868Z,17.97
2018-10-02T06:58:47.599Z,4.90
2018-10-02T07:01:16.284Z,6.03
2018-10-02T07:03:44.982Z,5.60
2018-10-02T07:06:18.948Z,4.80
2018-10-02T07:08:47.661Z,4.70
2018-10-02T07:11:16.340Z,5.93
2018-10-02T07:13:45.095Z,5.93
2018-10-02T07:16:13.795Z,4.17
2018-10-02T07:18:42.656Z,4.40
2018-10-02T07:21:11.359Z,6.60
2018-10-02T07:23:40.104Z,4.83
2018-10-02T07:26:09.065Z,5.10
2018-10-02T07:28:38.151Z,4.53
2018-10-02T07:31:07.171Z,4.03
2018-10-02T07:33:35.747Z,3.43
2018-10-02T07:36:04.449Z,3.70
2018-10-02T07:38:33.237Z,6.47
2018-10-02T07:41:01.866Z,6.77
2018-10-02T07:43:31.055Z,4.57
2018-10-02T07:45:59.738Z,5.20
2018-10-02T07:48:28.408Z,3.83
2018-10-02T07:50:57.113Z,4.43
2018-10-02T07:53:25.861Z,4.17
2018-10-02T07:55:54.505Z,3.23
2018-10-02T07:58:23.574Z,3.60
2018-10-02T08:00:52.274Z,4.60
2018-10-02T08:03:20.989Z,6.93
2018-10-02T08:05:49.691Z,7.50
2018-10-02T08:08:18.385Z,4.43
2018-10-02T08:10:47.085Z,4.77
2018-10-02T08:13:15.734Z,4.13
2018-10-02T08:15:45.068Z,3.73
2018-10-02T08:18:14.325Z,3.87
2018-10-02T08:20:43.671Z,3.63
2018-10-02T08:23:12.614Z,3.30
2018-10-02T08:25:46.453Z,6.80
2018-10-02T08:28:15.251Z,4.33
2018-10-02T08:30:43.972Z,3.20
2018-10-02T08:33:13.035Z,6.43
2018-10-02T08:35:41.821Z,3.00
2018-10-02T08:38:10.831Z,3.47
2018-10-02T08:40:39.516Z,4.03
2018-10-02T08:43:08.274Z,2.87
2018-10-02T08:45:37.171Z,2.97
2018-10-02T08:48:07.297Z,5.00
2018-10-02T08:50:36.423Z,2.17
2018-10-02T08:53:05.102Z,2.90
2018-10-02T08:55:33.888Z,3.07
2018-10-02T08:58:02.673Z,2.07
2018-10-02T09:00:31.457Z,3.03
2018-10-02T09:03:00.173Z,2.53
2018-10-02T09:05:28.905Z,5.90
2018-10-02T09:07:57.614Z,4.00
2018-10-02T09:10:26.280Z,3.57
2018-10-02T09:12:55.077Z,2.97
2018-10-02T09:15:23.782Z,4.13
2018-10-02T09:17:52.474Z,2.53
2018-10-02T09:20:21.268Z,4.03
2018-10-02T09:22:49.994Z,3.13
2018-10-02T09:25:18.754Z,6.80
2018-10-02T09:27:47.590Z,3.40
2018-10-02T09:30:21.319Z,3.03
2018-10-02T09:32:55.286Z,5.17
2018-10-02T09:35:29.346Z,4.20
2018-10-02T09:38:03.210Z,7.47
2018-10-02T09:40:37.028Z,2.53
2018-10-02T09:43:11.070Z,2.90
2018-10-02T09:45:40.047Z,2.50
2018-10-02T09:48:11.349Z,3.00
2018-10-02T09:50:40.044Z,3.83
2018-10-02T09:53:08.760Z,4.13
2018-10-02T09:55:37.556Z,6.90
2018-10-02T09:58:06.350Z,5.40
2018-10-02T10:00:40.491Z,4.63
2018-10-02T10:03:09.008Z,3.50
2018-10-02T10:05:37.694Z,2.90
2018-10-02T10:08:06.487Z,3.53
2018-10-02T10:10:35.281Z,3.03
2018-10-02T10:13:03.915Z,2.40
2018-10-02T10:15:32.601Z,1.70
2018-10-02T10:18:01.285Z,2.17
2018-10-02T10:20:30.069Z,1.33
2018-10-02T10:22:58.898Z,6.07
2018-10-02T10:25:27.597Z,5.97
2018-10-02T10:27:56.338Z,1.40
2018-10-02T10:30:25.296Z,2.43
2018-10-02T10:32:54.077Z,2.27
2018-10-02T10:35:23.081Z,2.90
2018-10-02T10:37:51.811Z,3.40
2018-10-02T10:40:20.510Z,2.00
2018-10-02T10:42:49.271Z,2.90
2018-10-02T10:45:17.987Z,1.70
2018-10-02T10:47:46.675Z,1.80
2018-10-02T10:50:15.414Z,2.33
2018-10-02T10:52:44.207Z,4.13
2018-10-02T10:55:21.865Z,1.93
2018-10-02T10:57:51.072Z,2.40
2018-10-02T11:00:19.992Z,3.23
2018-10-02T11:02:49.007Z,3.10
2018-10-02T11:05:17.966Z,2.80
2018-10-02T11:07:46.757Z,4.90
2018-10-02T11:10:16.914Z,3.53
2018-10-02T11:12:45.838Z,3.33
2018-10-02T11:15:14.709Z,1.93
2018-10-02T11:17:43.377Z,5.60
2018-10-02T11:20:14.538Z,3.20
2018-10-02T11:22:43.316Z,1.73
2018-10-02T11:25:12.114Z,3.33
2018-10-02T11:27:40.871Z,2.40
2018-10-02T11:30:10.204Z,2.33
2018-10-02T11:32:39.061Z,2.20
2018-10-02T11:35:07.808Z,2.40
2018-10-02T11:37:36.599Z,2.57
2018-10-02T11:40:05.550Z,1.37
2018-10-02T11:42:34.312Z,2.97
2018-10-02T11:45:03.179Z,1.97
2018-10-02T11:47:31.904Z,2.00
2018-10-02T11:50:00.684Z,2.23
2018-10-02T11:52:29.352Z,2.87
2018-10-02T11:54:58.035Z,2.43
2018-10-02T11:57:26.896Z,6.40
2018-10-02T11:59:55.573Z,1.43
2018-10-02T12:02:24.432Z,2.40
2018-10-02T12:04:53.104Z,1.27
2018-10-02T12:07:21.795Z,1.40
2018-10-02T12:09:50.506Z,5.23
2018-10-02T12:12:19.264Z,2.63
2018-10-02T12:14:47.969Z,2.40
2018-10-02T12:17:16.970Z,5.90
2018-10-02T12:19:45.810Z,2.20
2018-10-02T12:22:14.542Z,1.30
2018-10-02T12:24:43.224Z,2.33
2018-10-02T12:27:12.048Z,1.97
2018-10-02T12:29:40.712Z,3.00
2018-10-02T12:32:09.474Z,2.13
2018-10-02T12:34:38.180Z,1.80
2018-10-02T12:37:06.935Z,5.23
2018-10-02T12:39:35.792Z,4.80
2018-10-02T12:42:04.543Z,1.80
2018-10-02T12:44:33.267Z,1.90
2018-10-02T12:47:02.054Z,4.87
2018-10-02T12:49:30.863Z,2.20
2018-10-02T12:51:59.664Z,2.17
2018-10-02T12:54:28.406Z,2.00
2018-10-02T12:56:57.107Z,2.10
2018-10-02T12:59:25.931Z,4.13
2018-10-02T13:01:54.650Z,2.50
2018-10-02T13:04:23.405Z,3.00
2018-10-02T13:06:52.129Z,5.03
2018-10-02T13:09:20.840Z,2.27
2018-10-02T13:11:49.526Z,3.63
2018-10-02T13:14:18.218Z,2.40
2018-10-02T13:16:47.008Z,2.50
2018-10-02T13:19:15.756Z,2.93
2018-10-02T13:21:44.548Z,3.10
2018-10-02T13:24:13.318Z,3.73
2018-10-02T13:26:42.012Z,2.83
2018-10-02T13:29:10.865Z,4.70
2018-10-02T13:31:39.674Z,3.67
2018-10-02T13:34:08.426Z,3.53
2018-10-02T13:36:37.172Z,2.60
2018-10-02T13:39:08.774Z,5.13
2018-10-02T13:41:37.635Z,3.20
2018-10-02T13:44:06.443Z,5.53
2018-10-02T13:46:35.197Z,12.03
2018-10-02T13:49:03.906Z,5.00
2018-10-02T13:51:32.683Z,3.07
2018-10-02T13:54:01.447Z,2.60
2018-10-02T13:56:30.202Z,2.57
2018-10-02T13:58:58.947Z,7.17
2018-10-02T14:01:27.743Z,2.50
2018-10-02T14:03:56.446Z,5.60
2018-10-02T14:06:25.235Z,3.93
2018-10-02T14:08:53.966Z,7.27
2018-10-02T14:11:22.681Z,2.30
2018-10-02T14:13:51.354Z,4.73
2018-10-02T14:16:20.376Z,3.73
2018-10-02T14:18:49.395Z,3.57
2018-10-02T14:21:18.206Z,3.87
2018-10-02T14:23:46.946Z,5.73
2018-10-02T14:26:15.681Z,2.53
2018-10-02T14:28:44.516Z,4.07
2018-10-02T14:31:13.268Z,3.17
2018-10-02T14:33:41.986Z,7.83
2018-10-02T14:36:10.695Z,4.87
2018-10-02T14:38:39.417Z,3.90
2018-10-02T14:41:08.234Z,6.90
2018-10-02T14:43:37.107Z,4.27
2018-10-02T14:46:05.956Z,3.90
2018-10-02T14:48:34.769Z,4.50
2018-10-02T14:51:03.584Z,4.30
2018-10-02T14:53:32.318Z,5.97
2018-10-02T14:56:01.165Z,4.70
2018-10-02T14:58:29.970Z,9.90
2018-10-02T15:00:58.650Z,3.97
2018-10-02T15:03:27.316Z,6.03
2018-10-02T15:05:56.120Z,8.57
2018-10-02T15:08:24.900Z,5.23
2018-10-02T15:10:53.784Z,3.63
2018-10-02T15:13:22.524Z,10.10
2018-10-02T15:15:51.273Z,9.20
2018-10-02T15:18:19.993Z,7.93
2018-10-02T15:20:48.900Z,7.40
2018-10-02T15:23:18.066Z,7.30
2018-10-02T15:25:46.833Z,7.63
2018-10-02T15:28:15.670Z,9.30
2018-10-02T15:30:44.376Z,3.50
2018-10-02T15:33:13.239Z,8.40
2018-10-02T15:35:42.009Z,6.50
2018-10-02T15:38:10.828Z,3.60
2018-10-02T15:40:39.680Z,5.50
2018-10-02T15:43:08.722Z,5.33
2018-10-02T15:48:25.863Z,5.80
2018-10-02T15:50:54.776Z,4.30
2018-10-02T15:53:23.480Z,9.37
2018-10-02T15:55:52.278Z,4.43
2018-10-02T15:58:21.032Z,6.40
2018-10-02T16:00:49.965Z,7.63
2018-10-02T16:03:18.760Z,11.37
2018-10-02T16:05:47.532Z,4.43
2018-10-02T16:08:16.427Z,5.20
2018-10-02T16:10:45.291Z,7.60
2018-10-02T16:13:14.064Z,3.53
2018-10-02T16:15:42.839Z,4.70
2018-10-02T16:18:11.650Z,6.23
2018-10-02T16:20:40.466Z,12.33
2018-10-02T16:23:09.197Z,7.20
2018-10-02T16:25:37.967Z,5.27
2018-10-02T16:28:06.799Z,8.43
2018-10-02T16:30:35.623Z,10.43
2018-10-02T16:33:04.377Z,7.43
2018-10-02T16:35:33.101Z,4.23
2018-10-02T16:38:01.831Z,7.83
2018-10-02T16:40:30.593Z,5.00
2018-10-02T16:42:59.710Z,4.93
2018-10-02T16:45:28.540Z,8.20
2018-10-02T16:47:57.347Z,9.20
2018-10-02T16:50:26.635Z,7.00
2018-10-02T16:52:55.583Z,6.17
2018-10-02T16:55:24.376Z,4.67
2018-10-02T16:57:53.254Z,5.80
2018-10-02T17:00:22.093Z,4.03
2018-10-02T17:02:50.884Z,5.00
2018-10-02T17:05:20.343Z,7.93
2018-10-02T17:07:51.202Z,6.70
2018-10-02T17:10:19.959Z,5.60
2018-10-02T17:12:48.946Z,13.07
2018-10-02T17:15:17.825Z,3.23
2018-10-02T17:17:46.628Z,5.93
2018-10-02T17:20:15.433Z,5.93
2018-10-02T17:22:44.132Z,8.50
2018-10-02T17:25:13.038Z,5.20
2018-10-02T17:27:42.426Z,7.00
2018-10-02T17:30:11.222Z,6.60
2018-10-02T17:32:40.051Z,7.10
2018-10-02T17:35:10.745Z,5.70
2018-10-02T17:37:53.087Z,7.57
2018-10-02T17:44:12.571Z,11.60
2018-10-02T17:46:42.604Z,6.73
2018-10-02T17:51:23.391Z,12.33
2018-10-02T17:54:15.603Z,8.53
2018-10-02T17:56:54.439Z,8.67
2018-10-02T18:02:28.776Z,7.60
2018-10-02T18:05:03.718Z,9.80
2018-10-02T18:07:46.464Z,5.13
2018-10-02T18:10:24.015Z,4.77
2018-10-02T18:12:59.980Z,8.03
2018-10-02T18:15:37.049Z,7.90
2018-10-02T18:18:21.524Z,6.93
2018-10-02T18:20:52.545Z,6.60
2018-10-02T18:26:11.973Z,6.63
2018-10-02T18:28:48.683Z,5.40
2018-10-02T18:31:27.533Z,6.70
2018-10-02T18:33:58.455Z,11.93
2018-10-02T18:36:28.265Z,12.90
2018-10-02T18:38:58.601Z,8.37
2018-10-02T18:41:33.597Z,6.07
2018-10-02T18:44:05.154Z,8.00
2018-10-02T19:07:18.252Z,8.77
2018-10-02T19:09:55.746Z,7.00
2018-10-02T19:12:27.022Z,8.10
2018-10-02T19:15:06.242Z,7.20
2018-10-02T19:17:54.486Z,6.53
2018-10-02T19:20:33.951Z,5.70
2018-10-02T19:23:13.847Z,8.43
2018-10-02T19:25:50.022Z,5.90
2018-10-02T19:28:34.636Z,8.07
2018-10-02T19:31:14.222Z,8.90
2018-10-02T19:33:45.153Z,12.10
2018-10-02T19:36:21.754Z,7.73
2018-10-02T19:39:00.128Z,5.57
2018-10-02T19:44:34.948Z,5.33
2018-10-02T19:47:12.946Z,5.17
2018-10-02T19:49:46.820Z,10.73
2018-10-02T19:52:33.299Z,8.33
2018-10-02T20:17:06.992Z,4.63
2018-10-02T20:19:39.611Z,6.93
2018-10-02T20:22:12.715Z,4.30
2018-10-02T20:24:42.212Z,6.63
2018-10-02T20:27:14.040Z,6.50
2018-10-02T20:29:47.558Z,4.40
2018-10-02T20:32:17.829Z,7.97
2018-10-02T20:34:48.006Z,7.80
2018-10-02T20:37:19.098Z,5.03
2018-10-02T20:39:52.999Z,7.13
2018-10-02T20:42:24.874Z,5.20
2018-10-02T20:44:59.222Z,7.47
2018-10-02T20:47:41.613Z,5.90
2018-10-02T20:50:11.314Z,7.87
2018-10-02T20:53:02.943Z,4.40
2018-10-02T20:55:39.670Z,5.53
2018-10-02T20:58:08.703Z,4.27
2018-10-02T21:00:37.606Z,4.43
2018-10-02T21:03:06.564Z,6.90
2018-10-02T21:05:35.423Z,6.53
2018-10-02T21:08:04.207Z,3.93
2018-10-02T21:10:32.979Z,4.60
2018-10-02T21:13:01.710Z,6.50
2018-10-02T21:15:31.205Z,9.77
2018-10-02T21:17:59.853Z,7.67
2018-10-02T21:20:28.923Z,4.13
2018-10-02T21:22:57.827Z,5.63
2018-10-02T21:25:27.428Z,6.40
2018-10-02T21:27:56.227Z,5.90
2018-10-02T21:30:25.058Z,6.30
2018-10-02T21:32:53.810Z,3.77
2018-10-02T21:35:22.764Z,6.80
2018-10-02T21:37:51.774Z,10.40
2018-10-02T21:40:21.212Z,3.20
2018-10-02T21:42:51.506Z,3.30
2018-10-02T21:45:20.426Z,7.03
2018-10-02T21:47:49.298Z,3.93
2018-10-02T21:50:18.279Z,3.57
2018-10-02T21:52:46.973Z,2.93
2018-10-02T21:55:15.756Z,4.80
2018-10-02T21:57:44.551Z,4.10
2018-10-02T22:00:13.708Z,7.17
2018-10-02T22:02:42.469Z,3.67
2018-10-02T22:05:11.275Z,3.57
2018-10-02T22:07:40.145Z,2.57
2018-10-02T22:10:08.984Z,5.93
2018-10-02T22:12:37.764Z,5.13
2018-10-02T22:15:06.622Z,3.13
2018-10-02T22:17:35.374Z,3.47
2018-10-02T22:20:04.104Z,2.30
2018-10-02T22:22:32.903Z,3.33
2018-10-02T22:25:01.630Z,2.00
2018-10-02T22:27:30.727Z,6.27
2018-10-02T22:30:00.715Z,5.27
2018-10-02T22:32:36.775Z,3.67
2018-10-02T22:35:14.521Z,3.13
2018-10-02T22:37:43.282Z,1.90
2018-10-02T22:40:12.576Z,1.63
2018-10-02T22:43:14.458Z,5.03
2018-10-02T22:46:25.746Z,4.77
2018-10-02T22:56:11.334Z,4.60
2018-10-02T23:19:52.326Z,3.57
2018-10-02T23:22:21.152Z,3.43
2018-10-02T23:24:49.891Z,5.10
2018-10-02T23:27:18.599Z,4.37
2018-10-02T23:29:47.282Z,3.70
2018-10-02T23:32:16.052Z,3.63
2018-10-02T23:34:44.793Z,2.80
2018-10-02T23:37:13.571Z,2.43
2018-10-02T23:39:42.289Z,4.77
2018-10-02T23:42:11.456Z,4.90
2018-10-02T23:44:40.165Z,5.43
2018-10-02T23:47:08.882Z,3.83
2018-10-02T23:49:37.615Z,3.60
2018-10-02T23:52:06.300Z,5.50
2018-10-02T23:54:34.990Z,3.97
2018-10-02T23:57:03.715Z,5.43
2018-10-02T23:59:32.491Z,4.47
